Time;durP1;ratioP1;P1;durP2;ratioP2;P2;SDS_P1;SDS_P2;PMS_P1;PMS_P2;Temp;Humidity;BMP_temperature;BMP_pressure;BME280_temperature;BME280_humidity;BME280_pressure;Samples;Min_cycle;Max_cycle;Signal;HPM_P1;HPM_P2
2023/04/20 00:02:24;;;;;;;9.63;8.83;;;;;;;12.01;82.60;94517.84;5094542;28;20968;-79
2023/04/20 00:04:50;;;;;;;16.97;11.20;;;;;;;12.02;80.84;94516.03;5042954;28;20444;-80
2023/04/20 00:07:18;;;;;;;16.63;12.97;;;;;;;11.94;80.50;94515.97;5094944;28;20446;-79
2023/04/20 00:09:45;;;;;;;12.50;11.30;;;;;;;11.97;80.27;94505.13;5094506;28;20970;-79
2023/04/20 00:12:11;;;;;;;12.67;11.33;;;;;;;11.87;78.58;94504.38;5094265;28;20425;-80
2023/04/20 00:14:38;;;;;;;16.53;11.80;;;;;;;11.76;80.12;94500.94;5094387;28;20443;-80
2023/04/20 00:20:28;;;;;;;11.93;10.70;;;;;;;11.79;81.08;94502.47;5094360;28;20460;-79
2023/04/20 00:22:55;;;;;;;12.93;11.73;;;;;;;11.73;80.38;94498.59;5094338;28;20453;-80
2023/04/20 00:25:22;;;;;;;15.80;12.07;;;;;;;11.65;80.09;94490.63;5094523;28;20428;-79
2023/04/20 00:27:48;;;;;;;17.13;11.50;;;;;;;11.63;80.12;94495.19;5094393;28;20440;-80
2023/04/20 00:30:15;;;;;;;11.27;10.17;;;;;;;11.59;78.34;94501.72;5094127;28;20447;-80
2023/04/20 00:32:42;;;;;;;14.60;10.77;;;;;;;11.49;77.69;94500.91;5093960;28;20444;-79
2023/04/20 00:35:09;;;;;;;11.43;10.43;;;;;;;11.37;79.15;94494.22;5093435;28;20455;-80
2023/04/20 00:37:38;;;;;;;12.47;11.20;;;;;;;11.32;78.76;94491.19;5093767;28;20973;-79
2023/04/20 00:40:06;;;;;;;12.40;11.10;;;;;;;11.36;78.65;94492.56;5094096;28;20471;-79
2023/04/20 00:42:33;;;;;;;12.30;11.07;;;;;;;11.33;78.60;94493.69;5093865;28;20854;-80
2023/04/20 00:45:00;;;;;;;17.83;11.47;;;;;;;11.32;79.61;94493.81;5042573;28;20439;-79
2023/04/20 00:47:27;;;;;;;14.70;11.07;;;;;;;11.28;80.31;94489.84;5093625;28;20488;-80
2023/04/20 00:49:55;;;;;;;13.13;11.77;;;;;;;11.26;80.62;94483.88;5093937;28;20432;-80
2023/04/20 00:59:07;;;;;;;12.37;11.07;;;;;;;10.87;81.80;94473.50;5092466;28;20431;-80
2023/04/20 01:01:33;;;;;;;12.23;10.50;;;;;;;10.86;83.01;94479.72;5093650;28;20849;-79
2023/04/20 01:04:00;;;;;;;12.07;10.80;;;;;;;10.78;83.44;94474.34;5058234;28;20451;-79
2023/04/20 01:06:27;;;;;;;13.47;11.00;;;;;;;10.75;83.02;94485.97;5093210;28;20910;-80
2023/04/20 01:08:54;;;;;;;15.73;11.93;;;;;;;10.73;83.45;94472.16;5093907;28;20988;-79
2023/04/20 01:11:21;;;;;;;15.60;10.90;;;;;;;10.69;83.43;94481.25;5093638;28;20770;-78
2023/04/20 01:13:48;;;;;;;11.70;9.83;;;;;;;10.62;84.07;94480.16;5093705;28;20455;-80
2023/04/20 01:16:16;;;;;;;14.90;10.27;;;;;;;10.65;84.08;94481.69;5092985;28;20543;-80
2023/04/20 01:18:45;;;;;;;15.03;10.87;;;;;;;10.61;84.29;94473.28;5093965;28;20463;-80
2023/04/20 01:21:12;;;;;;;10.30;9.30;;;;;;;10.55;84.68;94477.28;5093493;28;20439;-79
2023/04/20 01:23:40;;;;;;;15.53;10.07;;;;;;;10.60;84.21;94473.41;5093218;28;20971;-79
2023/04/20 01:26:08;;;;;;;14.07;10.83;;;;;;;10.60;85.04;94466.38;5093254;28;20435;-79
2023/04/20 01:28:35;;;;;;;12.90;11.27;;;;;;;10.70;84.78;94479.50;5093544;28;20430;-80
2023/04/20 01:31:03;;;;;;;12.50;11.20;;;;;;;10.69;85.47;94481.25;5093176;28;20439;-79
2023/04/20 01:33:29;;;;;;;13.00;10.30;;;;;;;10.80;85.48;94472.41;5094161;28;20444;-80
2023/04/20 01:35:56;;;;;;;19.17;11.67;;;;;;;10.85;85.88;94475.44;5092849;28;20455;-79
2023/04/20 01:38:24;;;;;;;15.10;11.77;;;;;;;10.86;85.06;94474.47;5057544;28;20542;-79
2023/04/20 01:40:53;;;;;;;13.17;11.03;;;;;;;10.92;84.33;94473.06;5093155;28;20522;-79
2023/04/20 01:43:21;;;;;;;13.07;11.10;;;;;;;10.89;83.90;94473.34;5093218;28;20930;-79
2023/04/20 01:45:48;;;;;;;14.30;12.53;;;;;;;10.98;83.80;94470.69;5057820;28;20450;-80
2023/04/20 01:48:15;;;;;;;12.70;11.40;;;;;;;11.06;84.82;94477.88;5044824;28;20435;-80
2023/04/20 01:50:42;;;;;;;16.83;11.57;;;;;;;11.06;83.93;94470.00;5095937;28;20448;-79
2023/04/20 01:53:09;;;;;;;10.63;9.63;;;;;;;11.07;83.85;94469.03;5045082;28;20439;-80
2023/04/20 01:55:36;;;;;;;12.07;10.73;;;;;;;11.07;83.40;94461.16;5096465;28;20452;-80
2023/04/20 01:58:04;;;;;;;12.73;10.10;;;;;;;11.09;83.87;94460.03;5096816;28;20479;-79
2023/04/20 02:00:30;;;;;;;15.33;10.40;;;;;;;11.15;83.17;94454.19;5096997;28;20428;-80
2023/04/20 02:02:57;;;;;;;17.60;11.57;;;;;;;11.11;82.80;94463.34;5096956;28;20452;-79
2023/04/20 02:05:24;;;;;;;13.10;11.37;;;;;;;11.06;82.42;94457.69;5096528;28;20447;-80
2023/04/20 02:07:51;;;;;;;14.10;12.70;;;;;;;11.12;82.33;94459.75;5096762;28;20460;-79
2023/04/20 02:10:18;;;;;;;13.80;10.57;;;;;;;11.11;83.13;94458.09;5096598;28;20432;-79
2023/04/20 02:12:45;;;;;;;15.13;11.33;;;;;;;11.10;82.35;94455.59;5096919;28;20450;-80
2023/04/20 02:15:13;;;;;;;12.10;10.73;;;;;;;11.06;81.89;94451.63;5096606;28;20848;-80
2023/04/20 02:17:41;;;;;;;15.33;10.57;;;;;;;11.11;83.01;94460.72;5096510;28;20475;-79
2023/04/20 02:20:09;;;;;;;14.80;11.00;;;;;;;11.11;82.47;94458.09;5096445;28;20460;-79
2023/04/20 02:22:36;;;;;;;14.00;11.27;;;;;;;11.15;82.30;94462.06;5096556;28;20522;-79
2023/04/20 02:25:04;;;;;;;12.17;10.77;;;;;;;11.15;82.31;94461.25;5096881;28;20435;-79
2023/04/20 02:27:31;;;;;;;18.33;12.13;;;;;;;11.12;81.87;94457.13;5096578;28;20839;-80
2023/04/20 02:29:58;;;;;;;12.57;11.27;;;;;;;11.12;82.11;94464.16;5096109;28;20444;-79
2023/04/20 02:32:27;;;;;;;12.00;10.40;;;;;;;11.07;82.13;94461.16;5094934;28;20946;-80
2023/04/20 02:34:54;;;;;;;14.20;11.20;;;;;;;11.09;82.02;94462.66;5095462;28;20454;-80
2023/04/20 02:37:20;;;;;;;19.33;12.10;;;;;;;11.04;82.11;94459.63;5095185;28;20483;-79
2023/04/20 02:39:47;;;;;;;14.40;11.13;;;;;;;10.94;82.97;94453.56;5095737;28;20474;-79
2023/04/20 02:42:14;;;;;;;15.50;12.23;;;;;;;10.94;81.82;94452.75;5095740;28;20452;-80
2023/04/20 02:44:41;;;;;;;13.33;11.90;;;;;;;10.97;83.58;94463.78;5096208;28;20791;-80
2023/04/20 02:47:07;;;;;;;14.63;12.37;;;;;;;10.91;82.86;94468.78;5095996;28;20447;-79
2023/04/20 02:49:36;;;;;;;14.07;12.57;;;;;;;10.94;82.50;94468.50;5095343;28;20458;-80
2023/04/20 02:52:02;;;;;;;13.07;11.07;;;;;;;10.97;82.47;94463.78;5095082;28;20529;-79
2023/04/20 02:54:29;;;;;;;16.03;12.67;;;;;;;10.96;82.24;94467.38;5042735;28;20550;-79
2023/04/20 02:56:57;;;;;;;12.80;11.40;;;;;;;10.97;82.50;94469.03;5095109;28;20483;-79
2023/04/20 02:59:24;;;;;;;13.60;11.07;;;;;;;10.90;83.12;94475.84;5095090;28;20443;-80
2023/04/20 03:01:51;;;;;;;14.63;11.70;;;;;;;10.87;83.49;94463.00;5095389;28;20436;-79
2023/04/20 03:04:18;;;;;;;15.60;12.40;;;;;;;11.00;83.60;94468.78;5095649;28;20969;-80
2023/04/20 03:06:46;;;;;;;13.33;11.93;;;;;;;11.04;84.48;94464.91;5096005;28;20452;-80
2023/04/20 03:09:13;;;;;;;15.50;12.93;;;;;;;11.07;83.29;94463.78;5092338;28;20458;-80
2023/04/20 03:11:40;;;;;;;16.43;11.70;;;;;;;11.04;82.35;94458.81;5095672;28;20441;-79
2023/04/20 03:14:08;;;;;;;14.63;12.10;;;;;;;11.03;82.33;94458.00;5083911;28;20444;-79
2023/04/20 03:16:34;;;;;;;16.23;12.20;;;;;;;11.05;82.17;94470.97;5074914;28;20431;-79
2023/04/20 03:19:01;;;;;;;18.50;12.73;;;;;;;11.07;81.79;94469.84;5090321;28;20447;-79
2023/04/20 03:21:28;;;;;;;16.07;11.80;;;;;;;11.07;82.39;94467.22;5095491;28;20440;-80
2023/04/20 03:23:56;;;;;;;13.90;11.67;;;;;;;11.04;82.65;94459.63;5089246;28;20452;-80
2023/04/20 03:26:24;;;;;;;12.60;11.27;;;;;;;11.13;81.93;94474.53;5092366;28;20512;-79
2023/04/20 03:28:51;;;;;;;15.23;12.77;;;;;;;11.08;81.10;94471.50;5094762;28;20466;-80
2023/04/20 03:31:18;;;;;;;16.90;11.97;;;;;;;11.12;82.09;94472.88;5094777;28;20940;-79
2023/04/20 03:33:45;;;;;;;16.80;12.10;;;;;;;11.12;80.88;94472.88;5095127;28;20443;-79
2023/04/20 03:36:12;;;;;;;12.33;10.63;;;;;;;11.13;80.68;94471.91;5095160;28;20461;-79
2023/04/20 03:38:38;;;;;;;17.50;10.47;;;;;;;11.15;81.75;94477.84;5094814;28;20965;-79
2023/04/20 03:41:08;;;;;;;14.93;10.83;;;;;;;11.16;80.95;94479.50;5095130;28;20886;-80
2023/04/20 03:43:34;;;;;;;16.57;11.37;;;;;;;11.25;80.50;94475.16;5094657;28;20437;-80
2023/04/20 03:46:16;;;;;;;16.40;11.87;;;;;;;11.34;80.55;94476.13;5094839;28;20539;-79
2023/04/20 03:48:43;;;;;;;12.67;11.27;;;;;;;11.34;79.91;94482.19;5094923;28;20443;-79
2023/04/20 03:51:10;;;;;;;16.93;11.47;;;;;;;11.41;79.77;94487.69;5095139;28;20960;-79
2023/04/20 03:53:37;;;;;;;14.90;11.43;;;;;;;11.47;79.78;94487.09;5094786;28;20786;-79
2023/04/20 03:56:04;;;;;;;12.80;11.03;;;;;;;11.51;78.63;94488.47;5094748;28;20868;-79
2023/04/20 03:58:32;;;;;;;20.60;11.33;;;;;;;11.54;78.54;94477.66;5094405;28;21329;-80
2023/04/20 04:01:03;;;;;;;13.00;10.60;;;;;;;11.58;78.99;94473.78;5094653;28;20819;-79
2023/04/20 04:03:30;;;;;;;14.07;11.63;;;;;;;11.58;78.95;94494.00;5094234;28;20471;-80
2023/04/20 04:05:57;;;;;;;13.30;11.37;;;;;;;11.59;79.70;94480.69;5094761;28;20437;-81
2023/04/20 04:08:24;;;;;;;13.70;12.00;;;;;;;11.69;79.19;94484.09;5094094;28;20538;-79
2023/04/20 04:10:50;;;;;;;16.90;12.30;;;;;;;11.75;79.43;94488.75;5094830;28;20839;-80
2023/04/20 04:13:17;;;;;;;18.07;12.20;;;;;;;11.82;79.22;94493.44;5094390;28;20431;-79
2023/04/20 04:15:46;;;;;;;19.67;11.93;;;;;;;11.88;78.53;94490.25;5094028;28;20428;-79
2023/04/20 04:21:34;;;;;;;19.20;12.70;;;;;;;11.97;78.75;94495.44;5093394;28;20482;-79
2023/04/20 04:24:01;;;;;;;18.57;13.10;;;;;;;12.00;79.57;94495.16;5093827;28;20436;-79
2023/04/20 04:26:28;;;;;;;18.10;13.00;;;;;;;11.99;80.39;94493.50;5075269;28;21269;-79
2023/04/20 04:28:55;;;;;;;16.60;13.30;;;;;;;12.08;81.37;94494.41;5093981;28;20447;-82
2023/04/20 04:31:24;;;;;;;17.77;13.50;;;;;;;12.16;81.00;94494.50;5093641;28;20439;-81
2023/04/20 04:33:50;;;;;;;16.20;12.23;;;;;;;12.23;81.53;94498.19;5093691;28;20465;-82
2023/04/20 04:36:17;;;;;;;18.17;12.60;;;;;;;12.28;80.21;94493.28;5094401;28;20543;-79
2023/04/20 04:38:44;;;;;;;15.37;12.60;;;;;;;12.28;81.02;94497.72;5093755;28;20491;-79
2023/04/20 04:41:13;;;;;;;16.93;12.60;;;;;;;12.27;79.86;94496.91;5094242;28;20503;-80
2023/04/20 04:43:40;;;;;;;13.63;11.60;;;;;;;12.19;79.82;94501.25;5094534;28;20850;-80
2023/04/20 04:46:08;;;;;;;16.57;13.13;;;;;;;12.18;80.09;94510.97;5094067;28;20944;-79
2023/04/20 04:48:37;;;;;;;19.20;13.80;;;;;;;12.18;80.46;94507.50;5093828;28;20435;-80
2023/04/20 04:51:04;;;;;;;21.23;14.37;;;;;;;12.18;80.89;94507.50;5093462;28;20618;-79
2023/04/20 04:53:30;;;;;;;17.70;13.80;;;;;;;12.17;81.97;94511.94;5093645;28;20448;-78
2023/04/20 04:55:57;;;;;;;17.63;13.53;;;;;;;12.19;81.53;94511.78;5041927;28;20440;-78
2023/04/20 04:58:24;;;;;;;19.50;14.17;;;;;;;12.22;81.58;94514.13;5041347;28;20482;-79
2023/04/20 05:00:51;;;;;;;19.87;13.53;;;;;;;12.25;80.99;94509.38;5093767;28;20895;-78
2023/04/20 05:03:18;;;;;;;24.50;13.30;;;;;;;12.18;81.35;94513.59;5097838;28;20436;-79
2023/04/20 05:05:46;;;;;;;23.50;15.37;;;;;;;12.24;81.38;94517.41;5093476;28;20443;-79
2023/04/20 05:08:13;;;;;;;19.07;15.70;;;;;;;12.26;80.55;94520.72;5076871;28;20505;-78
2023/04/20 05:10:39;;;;;;;22.00;15.87;;;;;;;12.30;81.43;94524.72;5093445;28;20441;-79
2023/04/20 05:13:06;;;;;;;22.23;14.47;;;;;;;12.21;79.90;94520.34;5102356;28;20461;-78
2023/04/20 05:15:33;;;;;;;19.27;14.93;;;;;;;11.98;78.50;94518.13;5098858;28;20440;-79
2023/04/20 05:18:01;;;;;;;15.27;13.70;;;;;;;11.68;78.76;94521.03;5087767;28;20465;-78
2023/04/20 05:20:28;;;;;;;21.50;14.10;;;;;;;11.53;79.82;94523.31;5073401;28;20494;-78
2023/04/20 05:22:56;;;;;;;18.10;15.37;;;;;;;11.48;79.88;94523.75;5076855;28;20445;-79
2023/04/20 05:25:23;;;;;;;21.43;15.80;;;;;;;11.54;80.67;94513.63;5077384;28;20444;-79
2023/04/20 05:27:50;;;;;;;18.77;15.07;;;;;;;11.52;80.57;94521.66;5076749;28;20509;-79
2023/04/20 05:30:17;;;;;;;17.90;14.83;;;;;;;11.49;83.55;94522.78;5076118;28;20448;-79
2023/04/20 05:32:43;;;;;;;18.37;15.50;;;;;;;11.56;83.92;94523.00;5076546;28;20452;-79
2023/04/20 05:35:10;;;;;;;20.10;15.20;;;;;;;11.48;80.48;94520.28;5075518;28;20459;-80
2023/04/20 05:37:37;;;;;;;21.17;14.50;;;;;;;11.47;80.71;94526.50;5075422;28;20484;-80
2023/04/20 05:40:08;;;;;;;18.63;14.37;;;;;;;11.53;81.93;94525.09;5075752;28;20978;-79
2023/04/20 05:42:35;;;;;;;16.73;14.93;;;;;;;11.61;81.88;94525.22;5076477;28;20787;-82
2023/04/20 05:45:02;;;;;;;17.27;14.70;;;;;;;11.70;80.54;94529.59;5079376;28;20475;-79
2023/04/20 05:47:28;;;;;;;25.23;15.70;;;;;;;11.77;81.34;94534.13;5096420;28;20828;-78
2023/04/20 05:49:55;;;;;;;20.17;16.13;;;;;;;11.77;79.27;94526.25;5082669;28;20490;-79
2023/04/20 05:52:22;;;;;;;19.33;15.37;;;;;;;11.76;78.56;94534.28;5076326;28;20448;-80
2023/04/20 05:54:49;;;;;;;20.00;15.80;;;;;;;11.75;81.01;94530.81;5076971;28;20460;-81
2023/04/20 05:57:17;;;;;;;21.40;17.47;;;;;;;11.78;79.72;94521.84;5096386;28;20447;-80
2023/04/20 05:59:44;;;;;;;19.90;16.97;;;;;;;11.81;80.55;94525.97;5080284;28;20498;-80
2023/04/20 06:02:11;;;;;;;18.40;14.33;;;;;;;11.77;80.61;94528.88;5076310;28;20456;-80
2023/04/20 06:04:38;;;;;;;20.43;14.40;;;;;;;11.70;81.54;94524.34;5060119;28;20847;-79
2023/04/20 06:07:04;;;;;;;20.13;14.87;;;;;;;11.65;80.38;94523.97;5096431;28;20470;-80
2023/04/20 06:09:32;;;;;;;23.50;17.57;;;;;;;11.62;79.92;94532.97;5091227;28;20452;-78
2023/04/20 06:12:00;;;;;;;22.67;17.60;;;;;;;11.54;81.72;94527.59;5106938;28;20511;-79
2023/04/20 06:14:28;;;;;;;28.37;19.53;;;;;;;11.51;80.30;94530.50;5093748;28;20444;-79
2023/04/20 06:16:55;;;;;;;31.53;22.00;;;;;;;11.52;84.63;94526.91;5084479;28;20455;-81
2023/04/20 06:19:22;;;;;;;22.60;18.67;;;;;;;11.47;81.57;94539.66;5094969;28;20529;-79
2023/04/20 06:21:49;;;;;;;17.33;15.60;;;;;;;11.38;82.69;94522.13;5086486;28;20472;-80
2023/04/20 06:24:15;;;;;;;21.80;16.27;;;;;;;11.37;84.13;94531.81;5094847;28;20451;-81
2023/04/20 06:26:42;;;;;;;22.60;14.97;;;;;;;11.40;83.97;94531.53;5094263;28;20954;-80
2023/04/20 06:29:09;;;;;;;22.00;17.77;;;;;;;11.47;84.67;94535.22;5095147;28;20457;-80
2023/04/20 06:31:37;;;;;;;26.97;18.10;;;;;;;11.56;83.66;94537.94;5094222;28;20444;-80
2023/04/20 06:34:04;;;;;;;28.30;19.07;;;;;;;11.70;83.98;94540.13;5084819;28;20447;-80
2023/04/20 06:36:31;;;;;;;26.10;16.90;;;;;;;11.77;83.66;94531.50;5095128;28;20947;-80
2023/04/20 06:38:58;;;;;;;28.90;17.53;;;;;;;11.85;81.45;94541.31;5059887;28;21060;-81
2023/04/20 06:41:24;;;;;;;26.50;16.00;;;;;;;11.77;80.38;94539.38;5095345;28;21019;-80
2023/04/20 06:43:51;;;;;;;21.07;17.60;;;;;;;11.82;82.03;94540.78;5094809;28;20810;-81
2023/04/20 06:46:18;;;;;;;24.80;18.40;;;;;;;11.86;81.96;94544.78;5094529;28;20962;-81
2023/04/20 06:48:46;;;;;;;20.47;16.50;;;;;;;11.85;80.62;94545.72;5094835;28;20512;-82
2023/04/20 06:51:13;;;;;;;18.57;14.53;;;;;;;11.74;80.79;94546.72;5095050;28;20848;-81
2023/04/20 06:53:40;;;;;;;26.60;17.50;;;;;;;11.77;82.04;94547.25;5095665;28;20489;-82
2023/04/20 06:56:08;;;;;;;24.93;17.00;;;;;;;11.78;81.80;94553.38;5095569;28;20547;-81
2023/04/20 06:58:34;;;;;;;20.50;16.37;;;;;;;11.62;81.82;94548.72;5095880;28;20486;-81
2023/04/20 07:01:02;;;;;;;21.30;16.60;;;;;;;11.67;82.22;94556.19;5096009;28;20436;-82
2023/04/20 07:03:29;;;;;;;22.70;17.13;;;;;;;11.69;82.13;94557.69;5095807;28;20451;-81
2023/04/20 07:05:57;;;;;;;20.47;16.83;;;;;;;11.73;82.78;94560.84;5095284;28;20440;-82
2023/04/20 07:08:24;;;;;;;19.93;16.20;;;;;;;11.73;84.31;94561.69;5095278;28;20462;-82
2023/04/20 07:10:51;;;;;;;22.40;17.27;;;;;;;11.82;83.38;94560.00;5095204;28;20557;-82
2023/04/20 07:13:17;;;;;;;29.70;17.03;;;;;;;11.93;85.17;94567.72;5095502;28;20429;-82
2023/04/20 07:15:45;;;;;;;22.53;15.40;;;;;;;11.91;84.17;94555.69;5095133;28;20482;-82
2023/04/20 07:18:12;;;;;;;16.03;13.90;;;;;;;11.90;83.09;94564.56;5095297;28;20479;-82
2023/04/20 07:20:39;;;;;;;18.13;15.50;;;;;;;11.86;83.71;94557.94;5095225;28;20508;-82
2023/04/20 07:23:07;;;;;;;19.07;15.33;;;;;;;11.91;83.57;94566.22;5095049;28;20440;-82
2023/04/20 07:25:34;;;;;;;18.07;15.00;;;;;;;11.91;84.21;94560.94;5095056;28;20899;-81
2023/04/20 07:28:00;;;;;;;20.03;15.50;;;;;;;11.99;83.01;94561.88;5094937;28;20441;-82
2023/04/20 07:30:27;;;;;;;19.90;15.70;;;;;;;12.13;82.71;94565.78;5095030;28;20432;-82
2023/04/20 07:32:54;;;;;;;22.30;14.87;;;;;;;12.15;82.59;94563.03;5095138;28;20448;-82
2023/04/20 07:35:22;;;;;;;22.60;18.10;;;;;;;12.20;81.16;94561.63;5095575;28;20479;-82
2023/04/20 07:37:48;;;;;;;17.63;14.63;;;;;;;12.19;81.49;94557.31;5042879;28;20454;-82
2023/04/20 07:40:17;;;;;;;17.57;15.00;;;;;;;12.14;81.37;94563.97;5095311;28;20467;-83
2023/04/20 07:42:44;;;;;;;16.03;13.87;;;;;;;12.11;80.16;94565.09;5095416;28;20853;-83
2023/04/20 07:45:13;;;;;;;19.57;15.40;;;;;;;12.10;81.54;94558.19;5042790;28;20432;-82
2023/04/20 07:47:42;;;;;;;21.20;15.00;;;;;;;12.14;80.94;94553.47;5094765;28;20432;-81
2023/04/20 07:50:09;;;;;;;18.03;15.17;;;;;;;12.17;79.75;94547.94;5044342;28;20437;-82
2023/04/20 07:52:36;;;;;;;22.07;14.80;;;;;;;12.22;79.24;94550.94;5094533;28;20485;-82
2023/04/20 07:55:24;;;;;;;17.87;13.70;;;;;;;12.34;80.00;94552.38;5094479;28;20439;-82
2023/04/20 07:57:51;;;;;;;20.40;16.97;;;;;;;12.59;80.76;94556.91;5094459;28;20844;-83
2023/04/20 08:00:19;;;;;;;27.53;17.70;;;;;;;12.78;77.85;94550.66;5094864;28;20445;-83
2023/04/20 08:02:46;;;;;;;21.20;15.83;;;;;;;12.93;76.82;94566.72;5094493;28;20499;-81
2023/04/20 08:05:13;;;;;;;17.70;15.40;;;;;;;12.88;75.45;94561.94;5094601;28;20509;-82
2023/04/20 08:07:39;;;;;;;20.53;14.83;;;;;;;12.86;76.01;94561.25;5094274;28;20438;-81
2023/04/20 08:10:07;;;;;;;17.53;13.27;;;;;;;12.87;75.74;94562.09;5094319;28;20422;-81
2023/04/20 08:12:35;;;;;;;18.93;13.87;;;;;;;12.87;76.39;94551.53;5094552;28;20444;-81
2023/04/20 08:15:05;;;;;;;21.63;14.27;;;;;;;12.87;75.21;94572.63;5075513;28;21231;-82
2023/04/20 08:17:32;;;;;;;17.37;13.40;;;;;;;12.95;75.05;94562.97;5094730;28;20892;-82
2023/04/20 08:19:58;;;;;;;19.40;14.67;;;;;;;12.98;75.37;94553.94;5093825;28;20569;-83
2023/04/20 08:22:28;;;;;;;20.63;15.00;;;;;;;13.11;76.65;94559.66;5094060;28;20430;-83
2023/04/20 08:24:55;;;;;;;17.20;14.10;;;;;;;13.19;75.02;94557.09;5093824;28;20446;-82
2023/04/20 08:27:22;;;;;;;18.97;13.37;;;;;;;13.26;79.54;94557.28;5094418;28;20436;-82
2023/04/20 08:29:50;;;;;;;15.80;13.27;;;;;;;13.26;74.78;94557.28;5093908;28;20449;-82
2023/04/20 08:32:17;;;;;;;22.13;14.40;;;;;;;13.18;74.29;94563.34;5094267;28;20434;-82
2023/04/20 08:34:44;;;;;;;21.53;14.20;;;;;;;13.17;75.29;94559.06;5074821;28;20826;-82
2023/04/20 08:37:11;;;;;;;15.63;13.73;;;;;;;13.21;74.25;94564.84;5093778;28;20951;-82
2023/04/20 08:39:38;;;;;;;17.00;13.30;;;;;;;13.25;75.05;94556.47;5093875;28;20489;-82
2023/04/20 08:42:06;;;;;;;26.07;14.90;;;;;;;13.35;76.15;94553.75;5093798;28;20451;-82
2023/04/20 08:44:32;;;;;;;20.37;14.47;;;;;;;13.35;74.12;94555.56;5093716;28;20498;-81
2023/04/20 08:47:01;;;;;;;17.10;14.23;;;;;;;13.25;75.25;94553.00;5093850;28;20819;-82
2023/04/20 08:49:29;;;;;;;17.43;14.47;;;;;;;13.31;75.81;94560.31;5093152;28;20917;-82
2023/04/20 08:51:56;;;;;;;21.40;15.10;;;;;;;13.32;75.14;94552.25;5093895;28;20453;-81
2023/04/20 08:54:23;;;;;;;16.33;13.00;;;;;;;13.26;74.42;94549.38;5093922;28;20431;-82
2023/04/20 08:56:50;;;;;;;16.53;13.37;;;;;;;13.29;74.12;94560.44;5093197;28;20437;-81
2023/04/20 08:59:16;;;;;;;15.80;13.50;;;;;;;13.35;75.42;94552.94;5093312;28;20506;-82
2023/04/20 09:01:45;;;;;;;18.40;12.23;;;;;;;13.36;75.39;94558.03;5093605;28;20428;-82
2023/04/20 09:04:17;;;;;;;17.90;13.50;;;;;;;13.21;73.35;94556.94;5094281;28;20834;-82
2023/04/20 09:06:45;;;;;;;18.37;14.10;;;;;;;13.20;73.66;94560.56;5093034;28;20440;-81
2023/04/20 09:09:12;;;;;;;14.93;13.30;;;;;;;13.26;73.92;94562.56;5093231;28;20916;-81
2023/04/20 09:11:39;;;;;;;24.90;13.90;;;;;;;13.37;74.85;94570.22;5093249;28;20854;-81
2023/04/20 09:14:08;;;;;;;16.33;13.33;;;;;;;13.44;74.25;94563.34;5093937;28;20437;-80
2023/04/20 09:16:36;;;;;;;13.83;11.57;;;;;;;13.59;77.12;94559.19;5093681;28;20464;-81
2023/04/20 09:19:03;;;;;;;16.40;14.67;;;;;;;13.68;72.56;94562.69;5092496;28;20569;-81
2023/04/20 09:21:31;;;;;;;14.07;12.13;;;;;;;13.67;72.32;94568.94;5092015;28;20499;-82
2023/04/20 09:23:59;;;;;;;14.73;13.13;;;;;;;13.67;71.96;94566.28;5091845;28;20981;-81
2023/04/20 09:26:26;;;;;;;19.50;13.87;;;;;;;13.67;72.93;94555.75;4990448;28;20441;-81
2023/04/20 09:28:53;;;;;;;15.00;12.63;;;;;;;13.88;74.83;94545.63;5091948;28;20450;-82
2023/04/20 09:31:21;;;;;;;15.40;13.70;;;;;;;13.90;71.33;94551.59;5092189;28;20446;-82
2023/04/20 09:34:02;;;;;;;15.20;12.10;;;;;;;14.03;71.27;94558.22;5073834;28;20454;-81
2023/04/20 09:36:37;;;;;;;16.73;12.60;;;;;;;14.11;70.57;94548.50;5041399;28;20449;-82
2023/04/20 09:39:07;;;;;;;24.20;14.27;;;;;;;14.18;70.43;94549.53;5092799;28;20492;-81
2023/04/20 09:41:35;;;;;;;13.50;12.10;;;;;;;14.25;69.97;94549.72;5092167;28;20475;-81
2023/04/20 09:44:02;;;;;;;14.50;12.90;;;;;;;14.43;70.10;94560.16;5092213;28;20444;-82
2023/04/20 09:46:31;;;;;;;16.77;12.60;;;;;;;14.46;69.38;94549.31;5092144;28;20439;-81
2023/04/20 09:48:59;;;;;;;16.23;12.80;;;;;;;14.37;68.97;94547.59;5092066;28;20489;-82
2023/04/20 09:51:27;;;;;;;19.60;14.27;;;;;;;14.30;69.32;94539.50;5092301;28;20435;-81
2023/04/20 09:53:57;;;;;;;17.97;15.20;;;;;;;14.33;69.63;94552.38;5091910;28;20479;-81
2023/04/20 09:56:24;;;;;;;15.67;13.10;;;;;;;14.51;70.42;94549.66;5092398;28;20827;-82
2023/04/20 09:58:52;;;;;;;16.73;14.27;;;;;;;14.58;68.92;94545.38;5091901;28;20541;-81
2023/04/20 10:01:19;;;;;;;19.33;14.47;;;;;;;14.65;68.76;94534.97;5091616;28;20439;-81
2023/04/20 10:03:47;;;;;;;14.17;12.67;;;;;;;14.80;68.74;94543.91;5091386;28;20450;-82
2023/04/20 10:06:21;;;;;;;15.57;12.73;;;;;;;14.96;67.04;94538.63;5091174;28;20452;-81
2023/04/20 10:08:50;;;;;;;15.53;13.17;;;;;;;15.07;66.75;94537.47;5094361;28;20488;-81
2023/04/20 10:11:29;;;;;;;16.17;14.43;;;;;;;15.18;67.08;94529.19;5095951;28;20448;-82
2023/04/20 10:13:56;;;;;;;13.43;11.53;;;;;;;15.33;66.48;94529.34;5095494;28;20500;-82
2023/04/20 10:16:23;;;;;;;13.37;11.13;;;;;;;15.43;65.80;94535.28;5095056;28;20453;-81
2023/04/20 10:18:58;;;;;;;16.03;13.00;;;;;;;15.54;66.13;94528.78;5095824;28;20499;-80
2023/04/20 10:21:25;;;;;;;17.33;15.40;;;;;;;15.77;66.28;94532.41;5095615;28;20524;-83
2023/04/20 10:23:52;;;;;;;16.93;13.80;;;;;;;15.93;63.51;94535.00;5095449;28;20447;-82
2023/04/20 10:26:20;;;;;;;14.50;12.17;;;;;;;16.00;64.14;94517.44;5095149;28;20435;-82
2023/04/20 10:28:49;;;;;;;13.67;12.27;;;;;;;16.13;63.70;94516.06;5095292;28;20525;-82
2023/04/20 10:31:15;;;;;;;13.27;11.77;;;;;;;16.27;63.82;94523.28;5095533;28;20444;-83
2023/04/20 10:33:56;;;;;;;14.13;12.73;;;;;;;16.74;71.31;94515.22;5095370;28;20445;-82
2023/04/20 10:36:24;;;;;;;14.63;11.30;;;;;;;17.65;64.54;94512.41;5043198;28;20445;-82
2023/04/20 10:38:51;;;;;;;12.03;10.70;;;;;;;18.42;63.02;94511.97;5095453;28;20335;-83
2023/04/20 10:41:18;;;;;;;12.43;10.97;;;;;;;18.49;57.25;94506.75;5094665;28;20486;-83
2023/04/20 10:43:45;;;;;;;23.00;13.80;;;;;;;18.50;56.63;94503.06;5094877;28;20493;-82
2023/04/20 10:46:18;;;;;;;27.77;16.43;;;;;;;18.53;57.32;94495.56;5094788;28;20924;-82
2023/04/20 10:48:52;;;;;;;35.30;24.10;;;;;;;18.73;62.81;94494.97;5043302;28;20438;-81
2023/04/20 10:51:19;;;;;;;13.33;11.00;;;;;;;18.30;56.37;94502.88;5095155;28;20451;-83
2023/04/20 10:53:46;;;;;;;11.40;10.30;;;;;;;18.10;55.49;94494.66;5094986;28;20443;-82
2023/04/20 10:56:13;;;;;;;13.40;11.40;;;;;;;18.00;57.12;94495.97;5095207;28;20448;-83
2023/04/20 10:58:40;;;;;;;15.33;11.60;;;;;;;17.90;58.12;94499.69;5095066;28;20478;-81
2023/04/20 11:01:07;;;;;;;16.40;12.50;;;;;;;17.93;56.75;94502.00;5059991;28;20569;-82
2023/04/20 11:03:35;;;;;;;11.17;9.97;;;;;;;17.72;55.74;94499.28;5095563;28;21045;-82
2023/04/20 11:06:02;;;;;;;18.33;13.63;;;;;;;17.69;56.31;94496.97;5095304;28;20769;-82
2023/04/20 11:08:37;;;;;;;13.33;10.80;;;;;;;17.71;56.11;94491.50;5095506;28;20980;-82
2023/04/20 11:11:05;;;;;;;11.40;10.27;;;;;;;17.68;57.64;94484.72;5095469;28;20476;-81
2023/04/20 11:13:32;;;;;;;14.57;11.23;;;;;;;17.73;57.34;94487.66;5095834;28;20527;-83
2023/04/20 11:15:58;;;;;;;11.27;9.43;;;;;;;17.45;54.82;94481.28;5095417;28;20505;-82
2023/04/20 11:18:25;;;;;;;13.13;10.10;;;;;;;17.34;57.36;94477.25;5095528;28;20431;-82
2023/04/20 11:20:54;;;;;;;11.70;10.50;;;;;;;17.29;57.13;94471.66;5094684;28;20493;-82
2023/04/20 11:23:22;;;;;;;12.23;10.20;;;;;;;17.20;57.16;94468.28;5094961;28;20444;-82
2023/04/20 11:25:51;;;;;;;13.30;11.60;;;;;;;17.12;58.26;94471.00;5094439;28;20450;-81
2023/04/20 11:28:18;;;;;;;10.90;9.80;;;;;;;16.97;56.04;94467.50;5095004;28;20448;-80
2023/04/20 11:30:45;;;;;;;11.60;10.50;;;;;;;16.82;55.84;94464.81;5095268;28;20439;-80
2023/04/20 11:33:13;;;;;;;11.97;10.77;;;;;;;16.78;57.42;94478.59;5095103;28;20442;-80